sensor_id;sensor_type;location;lat;lon;timestamp;P1;durP1;ratioP1;P2;durP2;ratioP2
62633;SDS011;48704;50.534;6.442;2023-02-15T00:01:12;43.05;;;20.00;;
62633;SDS011;48704;50.534;6.442;2023-02-15T00:03:37;47.20;;;19.63;;
62633;SDS011;48704;50.534;6.442;2023-02-15T00:06:03;48.42;;;20.10;;
62633;SDS011;48704;50.534;6.442;2023-02-15T00:08:29;49.47;;;20.98;;
62633;SDS011;48704;50.534;6.442;2023-02-15T00:11:08;41.38;;;16.88;;
62633;SDS011;48704;50.534;6.442;2023-02-15T00:13:35;37.63;;;17.75;;
62633;SDS011;48704;50.534;6.442;2023-02-15T00:16:04;35.10;;;14.70;;
62633;SDS011;48704;50.534;6.442;2023-02-15T00:18:32;37.67;;;15.57;;
62633;SDS011;48704;50.534;6.442;2023-02-15T00:20:57;36.75;;;15.02;;
62633;SDS011;48704;50.534;6.442;2023-02-15T00:23:23;42.72;;;19.45;;
62633;SDS011;48704;50.534;6.442;2023-02-15T00:25:49;43.78;;;18.60;;
62633;SDS011;48704;50.534;6.442;2023-02-15T00:28:15;49.60;;;18.70;;
62633;SDS011;48704;50.534;6.442;2023-02-15T00:30:40;42.00;;;17.15;;
62633;SDS011;48704;50.534;6.442;2023-02-15T00:33:05;30.88;;;16.13;;
62633;SDS011;48704;50.534;6.442;2023-02-15T00:35:31;36.85;;;15.20;;
62633;SDS011;48704;50.534;6.442;2023-02-15T00:37:56;28.58;;;13.98;;
62633;SDS011;48704;50.534;6.442;2023-02-15T00:40:21;35.17;;;16.60;;
62633;SDS011;48704;50.534;6.442;2023-02-15T00:42:47;42.97;;;19.13;;
62633;SDS011;48704;50.534;6.442;2023-02-15T00:45:12;40.25;;;18.05;;
62633;SDS011;48704;50.534;6.442;2023-02-15T00:47:37;27.27;;;12.85;;
62633;SDS011;48704;50.534;6.442;2023-02-15T00:50:03;24.20;;;11.43;;
62633;SDS011;48704;50.534;6.442;2023-02-15T00:52:28;31.50;;;13.82;;
62633;SDS011;48704;50.534;6.442;2023-02-15T00:54:54;43.72;;;17.95;;
62633;SDS011;48704;50.534;6.442;2023-02-15T00:57:19;42.95;;;19.67;;
62633;SDS011;48704;50.534;6.442;2023-02-15T00:59:44;47.65;;;17.83;;
62633;SDS011;48704;50.534;6.442;2023-02-15T01:02:09;34.80;;;16.33;;
62633;SDS011;48704;50.534;6.442;2023-02-15T01:04:35;34.80;;;14.70;;
62633;SDS011;48704;50.534;6.442;2023-02-15T01:07:00;37.33;;;16.45;;
62633;SDS011;48704;50.534;6.442;2023-02-15T01:09:26;34.78;;;14.40;;
62633;SDS011;48704;50.534;6.442;2023-02-15T01:11:52;37.10;;;16.15;;
62633;SDS011;48704;50.534;6.442;2023-02-15T01:14:17;38.75;;;14.23;;
62633;SDS011;48704;50.534;6.442;2023-02-15T01:16:43;39.13;;;16.33;;
62633;SDS011;48704;50.534;6.442;2023-02-15T01:19:08;35.97;;;14.82;;
62633;SDS011;48704;50.534;6.442;2023-02-15T01:21:33;32.75;;;15.25;;
62633;SDS011;48704;50.534;6.442;2023-02-15T01:23:59;40.97;;;18.30;;
62633;SDS011;48704;50.534;6.442;2023-02-15T01:26:25;45.08;;;17.45;;
62633;SDS011;48704;50.534;6.442;2023-02-15T01:28:51;39.05;;;18.10;;
62633;SDS011;48704;50.534;6.442;2023-02-15T01:31:19;41.55;;;17.08;;
62633;SDS011;48704;50.534;6.442;2023-02-15T01:33:46;37.60;;;18.00;;
62633;SDS011;48704;50.534;6.442;2023-02-15T01:36:11;41.88;;;19.67;;
62633;SDS011;48704;50.534;6.442;2023-02-15T01:38:37;45.15;;;19.08;;
62633;SDS011;48704;50.534;6.442;2023-02-15T01:41:03;38.50;;;16.73;;
62633;SDS011;48704;50.534;6.442;2023-02-15T01:43:48;38.50;;;17.00;;
62633;SDS011;48704;50.534;6.442;2023-02-15T01:46:16;39.70;;;17.92;;
62633;SDS011;48704;50.534;6.442;2023-02-15T01:48:47;46.65;;;17.85;;
62633;SDS011;48704;50.534;6.442;2023-02-15T01:51:16;39.42;;;15.93;;
62633;SDS011;48704;50.534;6.442;2023-02-15T01:53:48;38.95;;;18.05;;
62633;SDS011;48704;50.534;6.442;2023-02-15T01:56:19;38.78;;;17.75;;
62633;SDS011;48704;50.534;6.442;2023-02-15T01:58:48;39.25;;;18.67;;
62633;SDS011;48704;50.534;6.442;2023-02-15T02:01:17;40.15;;;17.63;;
62633;SDS011;48704;50.534;6.442;2023-02-15T02:03:56;40.00;;;17.00;;
62633;SDS011;48704;50.534;6.442;2023-02-15T02:06:23;38.80;;;17.00;;
62633;SDS011;48704;50.534;6.442;2023-02-15T02:08:50;40.05;;;16.33;;
62633;SDS011;48704;50.534;6.442;2023-02-15T02:11:17;42.53;;;17.27;;
62633;SDS011;48704;50.534;6.442;2023-02-15T02:13:43;37.45;;;17.55;;
62633;SDS011;48704;50.534;6.442;2023-02-15T02:18:48;33.75;;;15.80;;
62633;SDS011;48704;50.534;6.442;2023-02-15T02:36:20;32.72;;;15.80;;
62633;SDS011;48704;50.534;6.442;2023-02-15T02:44:29;39.00;;;16.33;;
62633;SDS011;48704;50.534;6.442;2023-02-15T02:49:39;37.13;;;16.02;;
62633;SDS011;48704;50.534;6.442;2023-02-15T02:52:53;38.75;;;15.45;;
62633;SDS011;48704;50.534;6.442;2023-02-15T02:57:55;34.35;;;15.70;;
62633;SDS011;48704;50.534;6.442;2023-02-15T03:02:52;31.10;;;13.65;;
62633;SDS011;48704;50.534;6.442;2023-02-15T03:05:29;31.73;;;14.60;;
62633;SDS011;48704;50.534;6.442;2023-02-15T03:07:57;36.65;;;15.57;;
62633;SDS011;48704;50.534;6.442;2023-02-15T03:10:26;35.25;;;16.05;;
62633;SDS011;48704;50.534;6.442;2023-02-15T03:12:52;34.45;;;15.32;;
62633;SDS011;48704;50.534;6.442;2023-02-15T03:15:19;40.13;;;15.90;;
62633;SDS011;48704;50.534;6.442;2023-02-15T03:17:51;33.33;;;15.02;;
62633;SDS011;48704;50.534;6.442;2023-02-15T03:20:24;34.53;;;16.08;;
62633;SDS011;48704;50.534;6.442;2023-02-15T03:22:58;33.20;;;15.07;;
62633;SDS011;48704;50.534;6.442;2023-02-15T03:25:33;36.95;;;15.93;;
62633;SDS011;48704;50.534;6.442;2023-02-15T03:28:03;33.85;;;14.38;;
62633;SDS011;48704;50.534;6.442;2023-02-15T03:30:34;32.35;;;15.00;;
62633;SDS011;48704;50.534;6.442;2023-02-15T03:33:01;37.03;;;14.88;;
62633;SDS011;48704;50.534;6.442;2023-02-15T03:35:32;33.30;;;14.68;;
62633;SDS011;48704;50.534;6.442;2023-02-15T03:38:04;35.75;;;14.63;;
62633;SDS011;48704;50.534;6.442;2023-02-15T03:40:40;34.83;;;14.43;;
62633;SDS011;48704;50.534;6.442;2023-02-15T03:46:31;36.55;;;14.13;;
62633;SDS011;48704;50.534;6.442;2023-02-15T03:49:07;33.17;;;14.82;;
62633;SDS011;48704;50.534;6.442;2023-02-15T03:51:37;32.47;;;13.90;;
62633;SDS011;48704;50.534;6.442;2023-02-15T03:59:58;31.92;;;14.32;;
62633;SDS011;48704;50.534;6.442;2023-02-15T04:03:05;32.67;;;13.38;;
62633;SDS011;48704;50.534;6.442;2023-02-15T04:05:31;32.45;;;13.10;;
62633;SDS011;48704;50.534;6.442;2023-02-15T04:07:56;30.80;;;13.38;;
62633;SDS011;48704;50.534;6.442;2023-02-15T04:10:21;28.10;;;13.52;;
62633;SDS011;48704;50.534;6.442;2023-02-15T04:13:05;32.35;;;13.90;;
62633;SDS011;48704;50.534;6.442;2023-02-15T04:15:30;28.92;;;13.70;;
62633;SDS011;48704;50.534;6.442;2023-02-15T04:20:43;30.30;;;12.75;;
62633;SDS011;48704;50.534;6.442;2023-02-15T04:23:27;28.98;;;13.20;;
62633;SDS011;48704;50.534;6.442;2023-02-15T04:28:37;32.88;;;14.18;;
62633;SDS011;48704;50.534;6.442;2023-02-15T04:31:02;28.85;;;13.75;;
62633;SDS011;48704;50.534;6.442;2023-02-15T04:33:27;38.35;;;14.90;;
62633;SDS011;48704;50.534;6.442;2023-02-15T04:35:53;31.85;;;13.52;;
62633;SDS011;48704;50.534;6.442;2023-02-15T04:38:18;35.67;;;14.00;;
62633;SDS011;48704;50.534;6.442;2023-02-15T04:40:43;38.28;;;14.68;;
62633;SDS011;48704;50.534;6.442;2023-02-15T04:43:08;31.80;;;13.80;;
62633;SDS011;48704;50.534;6.442;2023-02-15T04:45:33;33.85;;;14.00;;
62633;SDS011;48704;50.534;6.442;2023-02-15T04:47:59;32.03;;;14.13;;
62633;SDS011;48704;50.534;6.442;2023-02-15T04:50:24;38.80;;;14.43;;
62633;SDS011;48704;50.534;6.442;2023-02-15T04:52:49;33.70;;;13.93;;
62633;SDS011;48704;50.534;6.442;2023-02-15T04:55:15;32.65;;;13.43;;
62633;SDS011;48704;50.534;6.442;2023-02-15T04:57:40;30.00;;;12.68;;
62633;SDS011;48704;50.534;6.442;2023-02-15T05:00:05;27.60;;;12.90;;
62633;SDS011;48704;50.534;6.442;2023-02-15T05:02:32;27.20;;;11.43;;
62633;SDS011;48704;50.534;6.442;2023-02-15T05:04:57;24.27;;;11.77;;
62633;SDS011;48704;50.534;6.442;2023-02-15T05:07:23;25.23;;;13.13;;
62633;SDS011;48704;50.534;6.442;2023-02-15T05:09:48;29.95;;;12.00;;
62633;SDS011;48704;50.534;6.442;2023-02-15T05:12:13;24.75;;;12.68;;
62633;SDS011;48704;50.534;6.442;2023-02-15T05:14:38;27.95;;;11.52;;
62633;SDS011;48704;50.534;6.442;2023-02-15T05:17:04;25.58;;;10.77;;
62633;SDS011;48704;50.534;6.442;2023-02-15T05:19:30;31.55;;;12.05;;
62633;SDS011;48704;50.534;6.442;2023-02-15T05:21:55;26.88;;;12.35;;
62633;SDS011;48704;50.534;6.442;2023-02-15T05:24:21;26.67;;;11.65;;
62633;SDS011;48704;50.534;6.442;2023-02-15T05:27:05;35.53;;;13.20;;
62633;SDS011;48704;50.534;6.442;2023-02-15T05:32:14;30.08;;;11.18;;
62633;SDS011;48704;50.534;6.442;2023-02-15T05:34:40;31.33;;;12.18;;
62633;SDS011;48704;50.534;6.442;2023-02-15T05:37:05;24.95;;;10.75;;
62633;SDS011;48704;50.534;6.442;2023-02-15T05:39:30;27.70;;;10.15;;
62633;SDS011;48704;50.534;6.442;2023-02-15T05:41:58;32.50;;;12.55;;
62633;SDS011;48704;50.534;6.442;2023-02-15T05:44:26;26.25;;;11.25;;
62633;SDS011;48704;50.534;6.442;2023-02-15T05:46:51;24.25;;;11.25;;
62633;SDS011;48704;50.534;6.442;2023-02-15T05:49:16;33.45;;;11.70;;
62633;SDS011;48704;50.534;6.442;2023-02-15T05:51:42;26.92;;;10.80;;
62633;SDS011;48704;50.534;6.442;2023-02-15T05:54:07;30.73;;;10.75;;
62633;SDS011;48704;50.534;6.442;2023-02-15T05:56:32;26.33;;;10.68;;
62633;SDS011;48704;50.534;6.442;2023-02-15T05:58:57;28.08;;;10.35;;
62633;SDS011;48704;50.534;6.442;2023-02-15T06:01:23;21.95;;;9.50;;
62633;SDS011;48704;50.534;6.442;2023-02-15T06:03:48;22.13;;;10.00;;
62633;SDS011;48704;50.534;6.442;2023-02-15T06:06:14;27.98;;;10.65;;
62633;SDS011;48704;50.534;6.442;2023-02-15T06:08:39;31.77;;;11.77;;
62633;SDS011;48704;50.534;6.442;2023-02-15T06:11:05;27.48;;;10.48;;
62633;SDS011;48704;50.534;6.442;2023-02-15T06:13:30;23.35;;;10.70;;
62633;SDS011;48704;50.534;6.442;2023-02-15T06:15:56;24.42;;;10.88;;
62633;SDS011;48704;50.534;6.442;2023-02-15T06:18:21;25.48;;;10.73;;
62633;SDS011;48704;50.534;6.442;2023-02-15T06:20:47;26.08;;;10.95;;
62633;SDS011;48704;50.534;6.442;2023-02-15T06:23:13;19.40;;;8.27;;
62633;SDS011;48704;50.534;6.442;2023-02-15T06:25:38;26.40;;;10.05;;
62633;SDS011;48704;50.534;6.442;2023-02-15T06:28:04;28.30;;;11.10;;
62633;SDS011;48704;50.534;6.442;2023-02-15T06:30:29;29.15;;;10.73;;
62633;SDS011;48704;50.534;6.442;2023-02-15T06:32:54;24.42;;;10.70;;
62633;SDS011;48704;50.534;6.442;2023-02-15T06:35:20;27.13;;;9.93;;
62633;SDS011;48704;50.534;6.442;2023-02-15T06:37:46;24.13;;;10.10;;
62633;SDS011;48704;50.534;6.442;2023-02-15T06:40:12;22.33;;;9.98;;
62633;SDS011;48704;50.534;6.442;2023-02-15T06:42:37;22.63;;;10.35;;
62633;SDS011;48704;50.534;6.442;2023-02-15T06:45:03;25.40;;;10.00;;
62633;SDS011;48704;50.534;6.442;2023-02-15T06:47:29;25.70;;;9.93;;
62633;SDS011;48704;50.534;6.442;2023-02-15T06:49:54;31.70;;;11.00;;
62633;SDS011;48704;50.534;6.442;2023-02-15T06:52:19;35.00;;;15.48;;
62633;SDS011;48704;50.534;6.442;2023-02-15T06:54:45;29.23;;;11.18;;
62633;SDS011;48704;50.534;6.442;2023-02-15T06:57:10;26.65;;;10.52;;
62633;SDS011;48704;50.534;6.442;2023-02-15T06:59:35;22.33;;;10.90;;
62633;SDS011;48704;50.534;6.442;2023-02-15T07:02:01;31.00;;;11.18;;
62633;SDS011;48704;50.534;6.442;2023-02-15T07:04:26;28.85;;;10.35;;
62633;SDS011;48704;50.534;6.442;2023-02-15T07:06:55;21.77;;;9.65;;
62633;SDS011;48704;50.534;6.442;2023-02-15T07:09:21;24.98;;;10.07;;
62633;SDS011;48704;50.534;6.442;2023-02-15T07:11:47;25.52;;;11.07;;
62633;SDS011;48704;50.534;6.442;2023-02-15T07:16:56;23.20;;;9.73;;
62633;SDS011;48704;50.534;6.442;2023-02-15T07:19:22;28.48;;;11.63;;
62633;SDS011;48704;50.534;6.442;2023-02-15T07:21:47;22.48;;;8.82;;
62633;SDS011;48704;50.534;6.442;2023-02-15T07:24:13;22.42;;;9.50;;
62633;SDS011;48704;50.534;6.442;2023-02-15T07:26:39;23.88;;;11.85;;
62633;SDS011;48704;50.534;6.442;2023-02-15T07:29:04;26.17;;;10.90;;
62633;SDS011;48704;50.534;6.442;2023-02-15T07:31:29;22.52;;;9.02;;
62633;SDS011;48704;50.534;6.442;2023-02-15T07:33:55;20.48;;;9.80;;
62633;SDS011;48704;50.534;6.442;2023-02-15T07:36:20;29.92;;;10.18;;
62633;SDS011;48704;50.534;6.442;2023-02-15T07:38:45;22.95;;;8.90;;
62633;SDS011;48704;50.534;6.442;2023-02-15T07:41:11;20.13;;;9.43;;
62633;SDS011;48704;50.534;6.442;2023-02-15T07:43:39;20.35;;;9.13;;
62633;SDS011;48704;50.534;6.442;2023-02-15T07:46:08;26.48;;;9.55;;
62633;SDS011;48704;50.534;6.442;2023-02-15T07:48:36;21.85;;;9.48;;
62633;SDS011;48704;50.534;6.442;2023-02-15T07:51:04;20.40;;;9.45;;
62633;SDS011;48704;50.534;6.442;2023-02-15T07:53:30;24.60;;;7.85;;
62633;SDS011;48704;50.534;6.442;2023-02-15T07:56:00;23.40;;;8.63;;
62633;SDS011;48704;50.534;6.442;2023-02-15T07:58:26;19.48;;;8.23;;
62633;SDS011;48704;50.534;6.442;2023-02-15T08:01:11;25.13;;;9.80;;
62633;SDS011;48704;50.534;6.442;2023-02-15T08:03:37;22.35;;;9.45;;
62633;SDS011;48704;50.534;6.442;2023-02-15T08:06:02;21.38;;;9.48;;
62633;SDS011;48704;50.534;6.442;2023-02-15T08:08:28;21.40;;;9.10;;
62633;SDS011;48704;50.534;6.442;2023-02-15T08:10:57;20.23;;;7.68;;
62633;SDS011;48704;50.534;6.442;2023-02-15T08:14:00;17.67;;;7.32;;
62633;SDS011;48704;50.534;6.442;2023-02-15T08:16:37;18.65;;;7.85;;
62633;SDS011;48704;50.534;6.442;2023-02-15T08:19:07;21.25;;;8.50;;
62633;SDS011;48704;50.534;6.442;2023-02-15T08:21:35;27.48;;;8.75;;
62633;SDS011;48704;50.534;6.442;2023-02-15T08:24:02;23.15;;;8.02;;
62633;SDS011;48704;50.534;6.442;2023-02-15T08:26:29;20.83;;;8.57;;
62633;SDS011;48704;50.534;6.442;2023-02-15T08:28:55;20.40;;;8.48;;
62633;SDS011;48704;50.534;6.442;2023-02-15T08:31:21;22.73;;;8.98;;
62633;SDS011;48704;50.534;6.442;2023-02-15T08:33:47;20.27;;;7.97;;
62633;SDS011;48704;50.534;6.442;2023-02-15T08:36:15;18.30;;;8.10;;
62633;SDS011;48704;50.534;6.442;2023-02-15T08:38:41;21.80;;;9.90;;
62633;SDS011;48704;50.534;6.442;2023-02-15T08:41:14;17.58;;;8.63;;
62633;SDS011;48704;50.534;6.442;2023-02-15T08:43:54;21.40;;;8.77;;
62633;SDS011;48704;50.534;6.442;2023-02-15T08:46:21;22.50;;;8.60;;
62633;SDS011;48704;50.534;6.442;2023-02-15T08:48:47;18.27;;;7.45;;
62633;SDS011;48704;50.534;6.442;2023-02-15T08:51:14;17.73;;;7.57;;
62633;SDS011;48704;50.534;6.442;2023-02-15T08:53:45;16.80;;;7.35;;
62633;SDS011;48704;50.534;6.442;2023-02-15T08:56:14;17.25;;;7.30;;
62633;SDS011;48704;50.534;6.442;2023-02-15T08:58:40;15.98;;;7.45;;
62633;SDS011;48704;50.534;6.442;2023-02-15T09:01:13;14.90;;;6.40;;
62633;SDS011;48704;50.534;6.442;2023-02-15T09:03:42;17.30;;;7.20;;
62633;SDS011;48704;50.534;6.442;2023-02-15T09:06:09;14.40;;;6.35;;
62633;SDS011;48704;50.534;6.442;2023-02-15T09:08:34;15.23;;;6.05;;
62633;SDS011;48704;50.534;6.442;2023-02-15T09:13:32;14.85;;;6.28;;
62633;SDS011;48704;50.534;6.442;2023-02-15T09:15:59;16.25;;;6.53;;
62633;SDS011;48704;50.534;6.442;2023-02-15T09:18:26;15.10;;;6.35;;
62633;SDS011;48704;50.534;6.442;2023-02-15T09:20:51;15.07;;;6.55;;
62633;SDS011;48704;50.534;6.442;2023-02-15T09:23:16;13.40;;;6.65;;
62633;SDS011;48704;50.534;6.442;2023-02-15T09:25:42;15.10;;;6.47;;
62633;SDS011;48704;50.534;6.442;2023-02-15T09:28:07;14.32;;;6.03;;
62633;SDS011;48704;50.534;6.442;2023-02-15T09:30:33;13.95;;;5.68;;
62633;SDS011;48704;50.534;6.442;2023-02-15T09:32:58;14.00;;;6.18;;
62633;SDS011;48704;50.534;6.442;2023-02-15T09:35:23;15.85;;;6.95;;
62633;SDS011;48704;50.534;6.442;2023-02-15T09:37:49;14.15;;;6.95;;
62633;SDS011;48704;50.534;6.442;2023-02-15T09:40:14;17.52;;;6.75;;
62633;SDS011;48704;50.534;6.442;2023-02-15T09:43:00;14.57;;;7.78;;
62633;SDS011;48704;50.534;6.442;2023-02-15T09:54:34;16.50;;;7.90;;
62633;SDS011;48704;50.534;6.442;2023-02-15T10:07:29;16.38;;;7.43;;
62633;SDS011;48704;50.534;6.442;2023-02-15T10:10:18;17.38;;;6.93;;
62633;SDS011;48704;50.534;6.442;2023-02-15T10:18:42;15.00;;;8.05;;
62633;SDS011;48704;50.534;6.442;2023-02-15T10:26:59;19.48;;;7.05;;
62633;SDS011;48704;50.534;6.442;2023-02-15T10:29:46;13.50;;;7.00;;
62633;SDS011;48704;50.534;6.442;2023-02-15T10:32:24;14.88;;;7.22;;
62633;SDS011;48704;50.534;6.442;2023-02-15T10:35:01;16.75;;;8.15;;
62633;SDS011;48704;50.534;6.442;2023-02-15T10:40:33;13.50;;;6.93;;
62633;SDS011;48704;50.534;6.442;2023-02-15T10:46:06;15.05;;;7.15;;
62633;SDS011;48704;50.534;6.442;2023-02-15T10:48:41;14.43;;;7.07;;
62633;SDS011;48704;50.534;6.442;2023-02-15T10:56:35;18.15;;;8.77;;
62633;SDS011;48704;50.534;6.442;2023-02-15T11:09:54;19.70;;;8.35;;
62633;SDS011;48704;50.534;6.442;2023-02-15T11:12:26;15.50;;;7.47;;
62633;SDS011;48704;50.534;6.442;2023-02-15T11:14:58;16.65;;;8.20;;
62633;SDS011;48704;50.534;6.442;2023-02-15T11:17:30;16.15;;;7.68;;
62633;SDS011;48704;50.534;6.442;2023-02-15T11:22:35;17.75;;;8.30;;
62633;SDS011;48704;50.534;6.442;2023-02-15T11:25:01;15.68;;;8.05;;
62633;SDS011;48704;50.534;6.442;2023-02-15T11:27:39;18.33;;;7.97;;
62633;SDS011;48704;50.534;6.442;2023-02-15T11:30:09;13.52;;;7.53;;
62633;SDS011;48704;50.534;6.442;2023-02-15T11:32:44;17.95;;;7.43;;
62633;SDS011;48704;50.534;6.442;2023-02-15T11:37:51;14.63;;;7.28;;
62633;SDS011;48704;50.534;6.442;2023-02-15T11:42:56;12.48;;;6.05;;
62633;SDS011;48704;50.534;6.442;2023-02-15T11:45:29;14.65;;;6.30;;
62633;SDS011;48704;50.534;6.442;2023-02-15T11:47:56;12.15;;;6.43;;
62633;SDS011;48704;50.534;6.442;2023-02-15T11:50:24;14.27;;;7.20;;
62633;SDS011;48704;50.534;6.442;2023-02-15T11:52:51;14.32;;;6.53;;
62633;SDS011;48704;50.534;6.442;2023-02-15T11:55:20;13.10;;;6.90;;
62633;SDS011;48704;50.534;6.442;2023-02-15T11:57:51;14.05;;;6.43;;
62633;SDS011;48704;50.534;6.442;2023-02-15T12:00:24;11.75;;;5.93;;
62633;SDS011;48704;50.534;6.442;2023-02-15T12:02:56;19.63;;;7.25;;
62633;SDS011;48704;50.534;6.442;2023-02-15T12:05:23;35.83;;;8.00;;
62633;SDS011;48704;50.534;6.442;2023-02-15T12:08:03;17.23;;;7.85;;
62633;SDS011;48704;50.534;6.442;2023-02-15T12:10:39;13.77;;;7.13;;
62633;SDS011;48704;50.534;6.442;2023-02-15T12:13:13;20.65;;;7.40;;
62633;SDS011;48704;50.534;6.442;2023-02-15T12:15:43;13.98;;;7.05;;
62633;SDS011;48704;50.534;6.442;2023-02-15T12:21:05;15.80;;;7.88;;
62633;SDS011;48704;50.534;6.442;2023-02-15T12:23:34;15.15;;;7.68;;
62633;SDS011;48704;50.534;6.442;2023-02-15T12:26:07;14.25;;;7.95;;
62633;SDS011;48704;50.534;6.442;2023-02-15T12:30:59;19.48;;;7.95;;
62633;SDS011;48704;50.534;6.442;2023-02-15T12:33:33;17.77;;;8.18;;
62633;SDS011;48704;50.534;6.442;2023-02-15T12:38:27;17.40;;;8.77;;
62633;SDS011;48704;50.534;6.442;2023-02-15T12:41:36;16.88;;;7.88;;
62633;SDS011;48704;50.534;6.442;2023-02-15T12:44:02;18.20;;;8.73;;
62633;SDS011;48704;50.534;6.442;2023-02-15T12:46:40;16.35;;;8.10;;
62633;SDS011;48704;50.534;6.442;2023-02-15T12:49:19;16.95;;;7.95;;
62633;SDS011;48704;50.534;6.442;2023-02-15T12:51:46;37.80;;;9.30;;
62633;SDS011;48704;50.534;6.442;2023-02-15T12:54:39;15.55;;;8.13;;
62633;SDS011;48704;50.534;6.442;2023-02-15T12:57:13;16.13;;;8.30;;
62633;SDS011;48704;50.534;6.442;2023-02-15T13:02:44;16.70;;;7.10;;
62633;SDS011;48704;50.534;6.442;2023-02-15T13:05:23;16.52;;;7.63;;
62633;SDS011;48704;50.534;6.442;2023-02-15T13:07:56;14.23;;;6.60;;
62633;SDS011;48704;50.534;6.442;2023-02-15T13:10:25;15.55;;;6.57;;
62633;SDS011;48704;50.534;6.442;2023-02-15T13:12:53;15.25;;;7.47;;
62633;SDS011;48704;50.534;6.442;2023-02-15T13:15:25;16.55;;;6.72;;
62633;SDS011;48704;50.534;6.442;2023-02-15T13:17:57;12.40;;;6.93;;
62633;SDS011;48704;50.534;6.442;2023-02-15T13:20:24;13.45;;;7.25;;
62633;SDS011;48704;50.534;6.442;2023-02-15T13:22:53;16.70;;;6.55;;
62633;SDS011;48704;50.534;6.442;2023-02-15T13:25:25;16.73;;;7.57;;
62633;SDS011;48704;50.534;6.442;2023-02-15T13:27:54;15.40;;;7.00;;
62633;SDS011;48704;50.534;6.442;2023-02-15T13:30:24;16.63;;;7.50;;
62633;SDS011;48704;50.534;6.442;2023-02-15T13:32:52;16.85;;;7.68;;
62633;SDS011;48704;50.534;6.442;2023-02-15T13:35:22;13.57;;;6.55;;
62633;SDS011;48704;50.534;6.442;2023-02-15T13:41:02;13.77;;;6.53;;
62633;SDS011;48704;50.534;6.442;2023-02-15T13:43:40;12.10;;;6.97;;
62633;SDS011;48704;50.534;6.442;2023-02-15T13:46:24;16.30;;;7.57;;
62633;SDS011;48704;50.534;6.442;2023-02-15T13:57:32;16.13;;;6.93;;
62633;SDS011;48704;50.534;6.442;2023-02-15T14:00:20;17.05;;;8.07;;
62633;SDS011;48704;50.534;6.442;2023-02-15T14:11:31;18.90;;;8.98;;
62633;SDS011;48704;50.534;6.442;2023-02-15T14:17:15;18.02;;;8.48;;
62633;SDS011;48704;50.534;6.442;2023-02-15T14:19:53;17.60;;;9.00;;
62633;SDS011;48704;50.534;6.442;2023-02-15T14:22:31;18.80;;;9.35;;
62633;SDS011;48704;50.534;6.442;2023-02-15T14:30:49;19.00;;;9.38;;
62633;SDS011;48704;50.534;6.442;2023-02-15T14:36:03;21.38;;;9.77;;
62633;SDS011;48704;50.534;6.442;2023-02-15T14:49:30;21.65;;;9.93;;
62633;SDS011;48704;50.534;6.442;2023-02-15T14:52:15;22.33;;;10.02;;
62633;SDS011;48704;50.534;6.442;2023-02-15T15:02:26;25.87;;;11.90;;
62633;SDS011;48704;50.534;6.442;2023-02-15T15:07:28;26.48;;;11.38;;
62633;SDS011;48704;50.534;6.442;2023-02-15T15:12:43;28.90;;;13.43;;
62633;SDS011;48704;50.534;6.442;2023-02-15T15:15:12;27.33;;;13.05;;
62633;SDS011;48704;50.534;6.442;2023-02-15T15:17:51;26.35;;;11.38;;
62633;SDS011;48704;50.534;6.442;2023-02-15T15:25:57;31.58;;;13.00;;
62633;SDS011;48704;50.534;6.442;2023-02-15T15:50:40;30.08;;;14.02;;
62633;SDS011;48704;50.534;6.442;2023-02-15T15:53:12;37.42;;;16.05;;
62633;SDS011;48704;50.534;6.442;2023-02-15T15:55:45;31.33;;;14.13;;
62633;SDS011;48704;50.534;6.442;2023-02-15T15:58:13;32.90;;;14.60;;
62633;SDS011;48704;50.534;6.442;2023-02-15T16:00:47;31.00;;;14.57;;
62633;SDS011;48704;50.534;6.442;2023-02-15T16:03:16;27.38;;;14.38;;
62633;SDS011;48704;50.534;6.442;2023-02-15T16:05:46;27.00;;;14.63;;
62633;SDS011;48704;50.534;6.442;2023-02-15T16:08:13;30.05;;;13.93;;
62633;SDS011;48704;50.534;6.442;2023-02-15T16:10:39;31.15;;;14.27;;
62633;SDS011;48704;50.534;6.442;2023-02-15T16:13:05;31.50;;;15.10;;
62633;SDS011;48704;50.534;6.442;2023-02-15T16:15:36;35.75;;;15.15;;
62633;SDS011;48704;50.534;6.442;2023-02-15T16:18:11;32.35;;;13.75;;
62633;SDS011;48704;50.534;6.442;2023-02-15T16:20:40;36.22;;;14.63;;
62633;SDS011;48704;50.534;6.442;2023-02-15T16:26:20;27.83;;;13.80;;
62633;SDS011;48704;50.534;6.442;2023-02-15T16:29:16;32.03;;;13.55;;
62633;SDS011;48704;50.534;6.442;2023-02-15T16:31:43;30.15;;;14.73;;
62633;SDS011;48704;50.534;6.442;2023-02-15T16:34:20;31.05;;;14.10;;
62633;SDS011;48704;50.534;6.442;2023-02-15T16:36:46;29.65;;;14.20;;
62633;SDS011;48704;50.534;6.442;2023-02-15T16:39:18;27.30;;;13.43;;
62633;SDS011;48704;50.534;6.442;2023-02-15T16:41:44;29.33;;;13.55;;
62633;SDS011;48704;50.534;6.442;2023-02-15T16:44:14;31.58;;;13.75;;
62633;SDS011;48704;50.534;6.442;2023-02-15T16:46:43;28.25;;;13.65;;
62633;SDS011;48704;50.534;6.442;2023-02-15T16:49:26;25.17;;;13.20;;
62633;SDS011;48704;50.534;6.442;2023-02-15T16:51:54;26.55;;;14.23;;
62633;SDS011;48704;50.534;6.442;2023-02-15T16:54:22;35.03;;;15.50;;
62633;SDS011;48704;50.534;6.442;2023-02-15T16:56:50;34.75;;;13.73;;
62633;SDS011;48704;50.534;6.442;2023-02-15T16:59:21;30.45;;;14.50;;
62633;SDS011;48704;50.534;6.442;2023-02-15T17:02:06;26.60;;;13.27;;
62633;SDS011;48704;50.534;6.442;2023-02-15T17:04:40;30.13;;;13.25;;
62633;SDS011;48704;50.534;6.442;2023-02-15T17:07:15;28.08;;;13.27;;
62633;SDS011;48704;50.534;6.442;2023-02-15T17:13:11;27.13;;;11.48;;
62633;SDS011;48704;50.534;6.442;2023-02-15T17:15:40;32.63;;;14.52;;
62633;SDS011;48704;50.534;6.442;2023-02-15T17:18:19;30.10;;;15.23;;
62633;SDS011;48704;50.534;6.442;2023-02-15T17:20:48;30.25;;;14.35;;
62633;SDS011;48704;50.534;6.442;2023-02-15T17:23:28;30.27;;;14.98;;
62633;SDS011;48704;50.534;6.442;2023-02-15T17:25:56;26.23;;;13.68;;
62633;SDS011;48704;50.534;6.442;2023-02-15T17:28:24;36.67;;;16.08;;
62633;SDS011;48704;50.534;6.442;2023-02-15T17:31:12;33.28;;;16.08;;
62633;SDS011;48704;50.534;6.442;2023-02-15T17:33:41;34.67;;;14.13;;
62633;SDS011;48704;50.534;6.442;2023-02-15T17:41:30;30.42;;;13.77;;
62633;SDS011;48704;50.534;6.442;2023-02-15T17:43:59;28.48;;;13.48;;
62633;SDS011;48704;50.534;6.442;2023-02-15T17:46:24;25.58;;;12.27;;
62633;SDS011;48704;50.534;6.442;2023-02-15T17:48:52;33.13;;;14.63;;
62633;SDS011;48704;50.534;6.442;2023-02-15T17:51:20;28.77;;;14.07;;
62633;SDS011;48704;50.534;6.442;2023-02-15T17:53:46;25.70;;;12.95;;
62633;SDS011;48704;50.534;6.442;2023-02-15T18:01:31;33.08;;;14.68;;
62633;SDS011;48704;50.534;6.442;2023-02-15T18:04:17;33.63;;;14.40;;
62633;SDS011;48704;50.534;6.442;2023-02-15T18:07:01;31.33;;;14.93;;
62633;SDS011;48704;50.534;6.442;2023-02-15T18:09:45;33.80;;;15.40;;
62633;SDS011;48704;50.534;6.442;2023-02-15T18:14:57;29.40;;;14.57;;
62633;SDS011;48704;50.534;6.442;2023-02-15T18:17:27;29.98;;;14.50;;
62633;SDS011;48704;50.534;6.442;2023-02-15T18:19:56;38.97;;;16.80;;
62633;SDS011;48704;50.534;6.442;2023-02-15T18:22:22;35.38;;;16.65;;
62633;SDS011;48704;50.534;6.442;2023-02-15T18:24:47;37.13;;;17.02;;
62633;SDS011;48704;50.534;6.442;2023-02-15T18:27:13;30.83;;;15.35;;
62633;SDS011;48704;50.534;6.442;2023-02-15T18:29:40;36.45;;;16.25;;